createdAt,value
2023-02-19T00:02:23.564Z,220.35
2023-02-19T00:05:48.123Z,209.55
2023-02-19T00:09:16.672Z,217.00
2023-02-19T00:12:41.245Z,214.38
2023-02-19T00:16:24.870Z,202.95
2023-02-19T00:19:57.832Z,203.65
2023-02-19T00:23:21.713Z,202.80
2023-02-19T00:26:46.123Z,210.32
2023-02-19T00:30:09.083Z,217.27
2023-02-19T00:33:31.166Z,210.13
2023-02-19T00:36:54.429Z,197.43
2023-02-19T00:51:03.076Z,175.27
2023-02-19T00:54:28.891Z,204.25
2023-02-19T00:58:43.433Z,191.88
2023-02-19T01:01:49.955Z,200.35
2023-02-19T01:05:14.699Z,216.73
2023-02-19T01:08:37.614Z,214.18
2023-02-19T01:12:01.922Z,212.32
2023-02-19T01:15:27.780Z,216.35
2023-02-19T01:18:53.339Z,207.38
2023-02-19T01:22:26.673Z,210.43
2023-02-19T01:25:50.751Z,203.45
2023-02-19T01:29:22.351Z,203.00
2023-02-19T01:32:49.952Z,194.30
2023-02-19T01:36:17.959Z,203.18
2023-02-19T01:39:40.984Z,203.93
2023-02-19T01:43:03.883Z,215.23
2023-02-19T01:46:31.027Z,210.02
2023-02-19T01:50:07.380Z,212.35
2023-02-19T01:57:25.876Z,219.63
2023-02-19T02:00:52.604Z,218.30
2023-02-19T02:04:31.646Z,207.75
2023-02-19T02:08:17.909Z,211.07
2023-02-19T02:12:08.357Z,201.95
2023-02-19T02:15:52.086Z,200.73
2023-02-19T02:19:28.259Z,198.32
2023-02-19T02:23:28.790Z,209.18
2023-02-19T02:27:21.552Z,188.32
2023-02-19T02:30:53.717Z,216.18
2023-02-19T02:34:25.607Z,226.63
2023-02-19T02:37:48.729Z,215.98
2023-02-19T02:41:12.961Z,202.02
2023-02-19T02:44:36.337Z,192.60
2023-02-19T02:47:58.873Z,202.20
2023-02-19T02:51:32.596Z,191.50
2023-02-19T02:55:23.987Z,197.85
2023-02-19T02:58:49.747Z,179.27
2023-02-19T03:02:23.938Z,187.80
2023-02-19T03:05:57.312Z,202.73
2023-02-19T03:09:34.407Z,205.32
2023-02-19T03:13:20.485Z,186.43
2023-02-19T03:17:08.587Z,166.93
2023-02-19T03:20:41.146Z,196.70
2023-02-19T03:24:34.001Z,186.05
2023-02-19T03:28:00.796Z,165.55
2023-02-19T03:31:25.830Z,203.45
2023-02-19T03:35:04.993Z,182.27
2023-02-19T03:38:42.927Z,190.27
2023-02-19T03:42:28.600Z,179.02
2023-02-19T03:46:08.285Z,230.20
2023-02-19T03:49:40.627Z,212.48
2023-02-19T03:53:06.494Z,197.70
2023-02-19T03:56:46.837Z,214.60
2023-02-19T04:00:19.470Z,203.23
2023-02-19T04:04:08.990Z,219.20
2023-02-19T04:07:38.738Z,237.73
2023-02-19T04:11:03.203Z,209.45
2023-02-19T04:14:39.791Z,205.95
2023-02-19T04:18:07.689Z,209.77
2023-02-19T04:21:32.351Z,206.05
2023-02-19T04:24:58.322Z,210.13
2023-02-19T04:28:22.179Z,208.80
2023-02-19T04:31:49.678Z,194.57
2023-02-19T04:35:18.162Z,208.23
2023-02-19T04:38:58.937Z,209.05
2023-02-19T04:42:28.878Z,209.15
2023-02-19T04:45:53.710Z,216.25
2023-02-19T04:49:29.871Z,206.20
2023-02-19T04:52:54.999Z,214.15
2023-02-19T04:56:18.249Z,208.82
2023-02-19T04:59:40.372Z,210.45
2023-02-19T05:03:04.255Z,213.85
2023-02-19T05:06:29.355Z,194.40
2023-02-19T05:09:59.499Z,232.80
2023-02-19T05:13:36.686Z,211.98
2023-02-19T05:17:13.110Z,216.05
2023-02-19T05:20:37.313Z,219.32
2023-02-19T05:23:59.580Z,218.95
2023-02-19T05:27:21.609Z,225.90
2023-02-19T05:30:47.825Z,224.10
2023-02-19T05:34:10.451Z,242.63
2023-02-19T05:37:32.512Z,240.10
2023-02-19T05:40:55.969Z,207.30
2023-02-19T05:44:18.639Z,196.55
2023-02-19T05:47:41.784Z,200.27
2023-02-19T05:51:13.437Z,197.15
2023-02-19T05:54:42.083Z,208.73
2023-02-19T05:58:05.208Z,210.07
2023-02-19T06:01:30.870Z,205.77
2023-02-19T06:04:54.317Z,188.55
2023-02-19T06:08:22.247Z,208.20
2023-02-19T06:11:46.437Z,215.52
2023-02-19T06:15:17.746Z,220.40
2023-02-19T06:18:42.993Z,195.98
2023-02-19T06:22:05.041Z,200.90
2023-02-19T06:25:27.092Z,205.63
2023-02-19T06:28:51.052Z,200.13
2023-02-19T06:32:13.188Z,200.18
2023-02-19T06:35:36.337Z,192.00
2023-02-19T06:39:05.608Z,213.73
2023-02-19T06:42:27.856Z,254.93
2023-02-19T06:46:08.928Z,228.25
2023-02-19T06:49:32.210Z,239.43
2023-02-19T06:52:57.982Z,236.80
2023-02-19T06:56:28.663Z,216.35
2023-02-19T06:59:55.729Z,226.25
2023-02-19T07:03:20.823Z,215.93
2023-02-19T07:06:43.651Z,251.27
2023-02-19T07:10:13.732Z,260.35
2023-02-19T07:13:39.941Z,256.42
2023-02-19T07:17:06.171Z,246.90
2023-02-19T07:20:34.125Z,270.35
2023-02-19T07:24:08.693Z,252.35
2023-02-19T07:27:37.721Z,286.50
2023-02-19T07:31:05.116Z,263.98
2023-02-19T07:34:29.294Z,242.10
2023-02-19T07:37:55.560Z,262.38
2023-02-19T07:41:18.971Z,247.98
2023-02-19T07:44:44.380Z,235.57
2023-02-19T07:48:07.817Z,197.98
2023-02-19T07:51:31.564Z,200.98
2023-02-19T07:54:56.647Z,200.70
2023-02-19T07:58:19.196Z,194.98
2023-02-19T08:01:59.815Z,203.48
2023-02-19T08:08:43.791Z,171.52
2023-02-19T08:12:24.403Z,200.45
2023-02-19T08:15:47.268Z,192.55
2023-02-19T08:19:09.376Z,185.70
2023-02-19T08:22:31.400Z,191.30
2023-02-19T08:26:13.295Z,209.05
2023-02-19T08:29:38.085Z,200.40
2023-02-19T08:35:04.688Z,177.55
2023-02-19T08:38:27.790Z,210.43
2023-02-19T08:41:53.415Z,198.73
2023-02-19T08:45:16.393Z,201.75
2023-02-19T08:48:42.990Z,197.68
2023-02-19T08:52:06.179Z,209.43
2023-02-19T08:55:29.128Z,201.38
2023-02-19T08:58:51.471Z,188.18
2023-02-19T09:02:13.555Z,191.02
2023-02-19T09:05:35.559Z,203.30
2023-02-19T09:08:57.514Z,204.65
2023-02-19T09:12:19.644Z,202.52
2023-02-19T09:15:41.623Z,197.27
2023-02-19T09:19:04.983Z,219.85
2023-02-19T09:22:26.952Z,209.00
2023-02-19T09:25:48.937Z,202.38
2023-02-19T09:29:11.309Z,180.82
2023-02-19T09:32:33.738Z,187.70
2023-02-19T09:36:00.171Z,211.30
2023-02-19T09:39:22.362Z,202.13
2023-02-19T09:42:44.452Z,201.18
2023-02-19T09:46:25.306Z,201.50
2023-02-19T09:49:59.494Z,180.63
2023-02-19T09:53:26.504Z,201.65
2023-02-19T09:56:48.718Z,201.93
2023-02-19T10:00:22.056Z,184.88
2023-02-19T10:03:48.811Z,178.85
2023-02-19T10:07:16.538Z,192.20
2023-02-19T10:10:39.078Z,174.00
2023-02-19T10:14:12.855Z,166.23
2023-02-19T10:17:35.723Z,164.02
2023-02-19T10:20:57.949Z,161.65
2023-02-19T10:24:30.504Z,154.23
2023-02-19T10:27:52.579Z,153.55
2023-02-19T10:31:23.765Z,171.18
2023-02-19T10:34:45.799Z,163.80
2023-02-19T10:38:08.441Z,148.98
2023-02-19T10:41:31.389Z,148.45
2023-02-19T10:44:58.590Z,142.00
2023-02-19T10:48:34.865Z,144.68
2023-02-19T10:52:02.531Z,135.57
2023-02-19T10:55:37.460Z,146.45
2023-02-19T10:59:18.283Z,146.30
2023-02-19T11:02:40.299Z,141.77
2023-02-19T11:06:04.798Z,146.65
2023-02-19T11:09:43.005Z,149.18
2023-02-19T11:13:07.627Z,144.93
2023-02-19T11:16:41.749Z,135.52
2023-02-19T11:20:10.131Z,149.93
2023-02-19T11:23:36.149Z,144.80
2023-02-19T11:26:59.564Z,148.30
2023-02-19T11:30:35.619Z,141.38
2023-02-19T11:34:00.948Z,155.55
2023-02-19T11:37:23.032Z,144.68
2023-02-19T11:41:14.748Z,143.75
2023-02-19T11:44:46.288Z,133.52
2023-02-19T11:48:17.371Z,131.38
2023-02-19T11:51:51.593Z,139.23
2023-02-19T11:55:35.598Z,129.50
2023-02-19T11:59:04.911Z,128.43
2023-02-19T12:03:05.730Z,122.57
2023-02-19T12:06:32.452Z,117.10
2023-02-19T12:10:20.885Z,129.15
2023-02-19T12:14:01.711Z,117.63
2023-02-19T12:17:29.677Z,164.50
2023-02-19T12:21:21.244Z,112.50
2023-02-19T12:25:23.763Z,111.38
2023-02-19T12:29:01.652Z,116.22
2023-02-19T12:32:44.972Z,123.30
2023-02-19T12:36:57.796Z,126.88
2023-02-19T12:40:36.034Z,126.55
2023-02-19T12:44:16.783Z,123.40
2023-02-19T12:47:42.338Z,116.82
2023-02-19T12:51:34.787Z,124.85
2023-02-19T12:59:59.610Z,128.02
2023-02-19T13:03:33.841Z,114.97
2023-02-19T13:07:40.958Z,118.80
2023-02-19T13:11:30.216Z,114.97
2023-02-19T13:15:04.299Z,107.15
2023-02-19T13:18:56.960Z,115.95
2023-02-19T13:22:44.837Z,107.53
2023-02-19T13:26:16.549Z,114.53
2023-02-19T13:29:59.163Z,120.93
2023-02-19T13:33:40.927Z,100.07
2023-02-19T13:37:16.393Z,89.82
2023-02-19T13:40:42.490Z,143.30
2023-02-19T13:44:27.245Z,148.45
2023-02-19T13:47:58.191Z,149.32
2023-02-19T13:51:22.774Z,154.68
2023-02-19T13:54:45.203Z,148.50
2023-02-19T13:58:35.951Z,150.90
2023-02-19T14:01:57.927Z,152.15
2023-02-19T14:05:58.157Z,139.35
2023-02-19T14:09:41.250Z,153.90
2023-02-19T14:13:03.483Z,141.20
2023-02-19T14:16:49.151Z,138.77
2023-02-19T14:20:17.034Z,137.95
2023-02-19T14:23:39.050Z,143.07
2023-02-19T14:27:01.237Z,145.77
2023-02-19T14:30:24.568Z,147.10
2023-02-19T14:33:50.859Z,131.55
2023-02-19T14:37:23.419Z,131.63
2023-02-19T14:40:47.182Z,127.75
2023-02-19T14:44:25.026Z,132.43
2023-02-19T14:47:48.671Z,123.88
2023-02-19T14:51:36.590Z,126.13
2023-02-19T14:55:39.080Z,134.82
2023-02-19T14:59:11.104Z,133.07
2023-02-19T15:02:33.115Z,137.93
2023-02-19T15:05:59.374Z,132.23
2023-02-19T15:09:21.956Z,125.65
2023-02-19T15:12:54.635Z,121.85
2023-02-19T15:16:19.541Z,124.68
2023-02-19T15:19:43.882Z,121.03
2023-02-19T15:23:07.456Z,120.13
2023-02-19T15:26:35.966Z,118.50
2023-02-19T15:29:57.972Z,123.70
2023-02-19T15:33:20.906Z,120.10
2023-02-19T15:36:43.167Z,122.90
2023-02-19T15:40:07.724Z,122.88
2023-02-19T15:43:39.495Z,131.75
2023-02-19T15:47:25.232Z,122.22
2023-02-19T15:50:57.537Z,129.50
2023-02-19T15:54:50.317Z,131.82
2023-02-19T15:58:21.473Z,144.13
2023-02-19T16:01:43.747Z,131.32
2023-02-19T16:05:24.066Z,135.20
2023-02-19T16:09:06.995Z,129.48
2023-02-19T16:12:29.754Z,136.57
2023-02-19T16:16:16.312Z,134.27
2023-02-19T16:19:44.251Z,130.40
2023-02-19T16:23:13.132Z,140.13
2023-02-19T16:26:42.601Z,132.18
2023-02-19T16:30:09.766Z,147.27
2023-02-19T16:33:38.794Z,143.27
2023-02-19T16:37:03.066Z,142.82
2023-02-19T16:40:24.951Z,145.85
2023-02-19T16:43:47.160Z,149.43
2023-02-19T16:47:27.846Z,141.40
2023-02-19T16:50:50.259Z,158.00
2023-02-19T16:54:12.753Z,155.98
2023-02-19T16:57:34.862Z,152.93
2023-02-19T17:00:57.474Z,161.63
2023-02-19T17:04:56.061Z,151.73
2023-02-19T17:08:43.647Z,165.30
2023-02-19T17:12:10.544Z,166.43
2023-02-19T17:15:32.456Z,174.98
2023-02-19T17:18:55.648Z,171.05
2023-02-19T17:22:17.913Z,187.48
2023-02-19T17:25:40.109Z,192.35
2023-02-19T17:29:05.037Z,192.98
2023-02-19T17:32:30.002Z,194.23
2023-02-19T17:35:51.963Z,192.35
2023-02-19T17:39:15.312Z,187.93
2023-02-19T17:42:37.242Z,184.90
2023-02-19T17:45:59.375Z,175.32
2023-02-19T17:49:21.397Z,161.85
2023-02-19T17:52:43.459Z,172.43
2023-02-19T17:56:05.985Z,157.25
2023-02-19T17:59:27.935Z,152.73
2023-02-19T18:02:51.947Z,161.95
2023-02-19T18:06:16.236Z,167.35
2023-02-19T18:09:43.884Z,162.43
2023-02-19T18:13:12.183Z,163.77
2023-02-19T18:16:36.541Z,162.45
2023-02-19T18:20:36.123Z,155.32
2023-02-19T18:24:08.472Z,158.55
2023-02-19T18:27:38.551Z,162.05
2023-02-19T18:31:09.789Z,152.13
2023-02-19T18:34:37.338Z,159.30
2023-02-19T18:37:59.737Z,169.07
2023-02-19T18:41:21.929Z,157.07
2023-02-19T18:44:47.018Z,162.13
2023-02-19T18:48:09.064Z,155.27
2023-02-19T18:51:31.104Z,149.88
2023-02-19T18:54:55.378Z,155.45
2023-02-19T18:58:21.974Z,148.63
2023-02-19T19:01:44.112Z,145.07
2023-02-19T19:05:06.274Z,152.23
2023-02-19T19:08:30.379Z,144.38
2023-02-19T19:11:52.629Z,135.15
2023-02-19T19:15:18.295Z,150.50
2023-02-19T19:18:52.383Z,155.97
2023-02-19T19:22:16.218Z,136.07
2023-02-19T19:25:48.812Z,138.07
2023-02-19T19:29:11.884Z,138.98
2023-02-19T19:32:34.149Z,130.32
2023-02-19T19:35:56.166Z,137.70
2023-02-19T19:39:18.145Z,134.15
2023-02-19T19:42:40.132Z,148.63
2023-02-19T19:46:04.208Z,137.32
2023-02-19T19:49:26.594Z,142.55
2023-02-19T19:52:48.580Z,127.30
2023-02-19T19:56:10.530Z,138.23
2023-02-19T19:59:32.619Z,133.63
2023-02-19T20:02:54.854Z,140.48
2023-02-19T20:06:29.005Z,145.60
2023-02-19T20:09:51.040Z,136.05
2023-02-19T20:13:17.571Z,135.82
2023-02-19T20:16:39.672Z,147.93
2023-02-19T20:20:02.288Z,142.75
2023-02-19T20:23:25.668Z,153.13
2023-02-19T20:26:49.013Z,156.88
2023-02-19T20:30:14.314Z,144.32
2023-02-19T20:33:36.423Z,144.23
2023-02-19T20:36:58.820Z,162.13
2023-02-19T20:40:20.842Z,151.70
2023-02-19T20:43:42.998Z,161.43
2023-02-19T20:47:05.201Z,147.60
2023-02-19T20:50:27.194Z,148.68
2023-02-19T20:53:49.387Z,149.32
2023-02-19T20:57:12.735Z,150.50
2023-02-19T21:00:34.780Z,161.50
2023-02-19T21:03:56.761Z,156.07
2023-02-19T21:07:18.748Z,161.50
2023-02-19T21:10:40.790Z,162.75
2023-02-19T21:14:03.056Z,154.85
2023-02-19T21:17:25.453Z,171.88
2023-02-19T21:20:47.639Z,165.75
2023-02-19T21:24:12.321Z,161.55
2023-02-19T21:27:34.306Z,171.25
2023-02-19T21:30:56.346Z,159.57
2023-02-19T21:34:20.710Z,163.90
2023-02-19T21:37:43.487Z,168.48
2023-02-19T21:41:05.683Z,167.25
2023-02-19T21:44:27.831Z,152.07
2023-02-19T21:47:52.196Z,167.93
2023-02-19T21:51:14.344Z,151.70
2023-02-19T21:54:36.465Z,166.90
2023-02-19T21:57:58.877Z,171.55
2023-02-19T22:01:26.638Z,175.60
2023-02-19T22:04:53.811Z,178.10
2023-02-19T22:08:17.481Z,177.13
2023-02-19T22:11:39.521Z,176.85
2023-02-19T22:15:01.447Z,160.93
2023-02-19T22:18:24.271Z,166.15
2023-02-19T22:21:46.378Z,151.73
2023-02-19T22:25:08.434Z,168.95
2023-02-19T22:28:30.453Z,174.10
2023-02-19T22:31:52.943Z,158.75
2023-02-19T22:35:15.904Z,157.00
2023-02-19T22:38:37.992Z,166.38
2023-02-19T22:42:00.298Z,162.43
2023-02-19T22:45:22.209Z,172.93
2023-02-19T22:48:47.205Z,174.23
2023-02-19T22:52:10.484Z,168.25
2023-02-19T22:55:32.498Z,163.07
2023-02-19T22:58:57.199Z,176.15
2023-02-19T23:02:19.167Z,186.38
2023-02-19T23:05:41.118Z,187.60
2023-02-19T23:09:09.036Z,183.18
2023-02-19T23:12:32.699Z,182.23
2023-02-19T23:15:54.797Z,193.30
2023-02-19T23:19:17.304Z,196.88
2023-02-19T23:22:40.114Z,188.07
2023-02-19T23:26:02.980Z,189.10
2023-02-19T23:29:27.042Z,188.60
2023-02-19T23:32:49.086Z,196.63
2023-02-19T23:36:12.244Z,194.57
2023-02-19T23:39:34.605Z,184.73
2023-02-19T23:42:56.901Z,177.00
2023-02-19T23:46:18.973Z,178.45
2023-02-19T23:49:41.652Z,192.32
2023-02-19T23:53:04.026Z,180.07
2023-02-19T23:56:27.883Z,191.75
2023-02-19T23:59:49.825Z,185.30
